createdAt,value
2023-01-07T00:04:26.853Z,14.90
2023-01-07T00:09:28.778Z,17.60
2023-01-07T00:14:33.260Z,14.80
2023-01-07T00:19:35.126Z,23.50
2023-01-07T00:24:36.968Z,17.30
2023-01-07T00:29:38.659Z,21.80
2023-01-07T00:34:40.494Z,22.10
2023-01-07T00:39:42.293Z,24.40
2023-01-07T00:44:44.011Z,26.70
2023-01-07T00:49:46.969Z,27.90
2023-01-07T00:54:48.781Z,25.50
2023-01-07T00:59:50.627Z,31.80
2023-01-07T01:04:52.402Z,26.40
2023-01-07T01:09:54.186Z,22.60
2023-01-07T01:14:56.709Z,24.30
2023-01-07T01:19:58.410Z,22.00
2023-01-07T01:25:00.161Z,19.40
2023-01-07T01:30:02.456Z,23.20
2023-01-07T01:35:05.211Z,31.30
2023-01-07T01:40:08.027Z,17.70
2023-01-07T01:45:11.684Z,27.80
2023-01-07T01:50:26.786Z,20.50
2023-01-07T01:55:35.676Z,26.40
2023-01-07T02:00:38.738Z,24.60
2023-01-07T02:05:42.606Z,29.00
2023-01-07T02:10:44.441Z,28.90
2023-01-07T02:16:11.224Z,31.90
2023-01-07T02:21:34.535Z,34.00
2023-01-07T02:27:04.017Z,34.40
2023-01-07T02:33:14.207Z,28.00
2023-01-07T02:38:44.960Z,31.00
2023-01-07T02:44:03.054Z,30.30
2023-01-07T02:49:09.449Z,32.10
2023-01-07T02:54:24.956Z,39.00
2023-01-07T03:00:03.233Z,36.80
2023-01-07T03:05:33.824Z,39.50
2023-01-07T03:10:45.131Z,33.90
2023-01-07T03:16:00.189Z,38.30
2023-01-07T03:21:06.658Z,44.60
2023-01-07T03:26:10.098Z,42.90
2023-01-07T03:31:15.803Z,46.80
2023-01-07T03:36:23.502Z,53.40
2023-01-07T03:41:45.598Z,58.30
2023-01-07T03:46:48.145Z,61.10
2023-01-07T03:51:50.289Z,58.10
2023-01-07T03:56:52.309Z,46.60
2023-01-07T04:01:54.236Z,56.90
2023-01-07T04:06:56.373Z,57.40
2023-01-07T04:11:58.495Z,55.80
2023-01-07T04:17:00.396Z,61.40
2023-01-07T04:22:02.345Z,65.00
2023-01-07T04:27:05.647Z,71.10
2023-01-07T04:32:07.419Z,62.00
2023-01-07T04:37:09.679Z,144.80
2023-01-07T04:42:11.490Z,89.60
2023-01-07T04:47:13.424Z,92.50
2023-01-07T04:52:15.432Z,95.10
2023-01-07T04:57:18.553Z,100.10
2023-01-07T05:02:20.701Z,115.40
2023-01-07T05:07:22.941Z,134.80
2023-01-07T05:12:24.824Z,136.00
2023-01-07T05:17:28.596Z,141.40
2023-01-07T05:22:32.640Z,142.90
2023-01-07T05:27:34.475Z,134.40
2023-01-07T05:32:37.783Z,153.40
2023-01-07T05:37:39.963Z,146.40
2023-01-07T05:42:43.658Z,153.90
2023-01-07T05:47:45.857Z,140.30
2023-01-07T05:52:47.732Z,136.30
2023-01-07T05:57:49.467Z,128.70
2023-01-07T06:02:51.118Z,126.60
2023-01-07T06:07:52.896Z,164.80
2023-01-07T06:12:54.631Z,167.60
2023-01-07T06:17:56.372Z,174.50
2023-01-07T06:22:58.102Z,158.80
2023-01-07T06:27:59.771Z,155.10
2023-01-07T06:33:01.575Z,155.00
2023-01-07T06:38:03.418Z,158.80
2023-01-07T06:43:05.114Z,156.70
2023-01-07T06:48:06.863Z,161.10
2023-01-07T06:53:08.507Z,184.20
2023-01-07T06:58:10.253Z,192.80
2023-01-07T07:03:12.067Z,222.60
2023-01-07T07:08:13.961Z,267.00
2023-01-07T07:13:15.719Z,319.30
2023-01-07T07:18:18.224Z,390.20
2023-01-07T07:23:19.913Z,400.20
2023-01-07T07:28:21.643Z,416.30
2023-01-07T07:33:23.355Z,404.10
2023-01-07T07:38:25.137Z,400.20
2023-01-07T07:43:26.992Z,386.70
2023-01-07T07:48:28.897Z,386.80
2023-01-07T07:53:30.692Z,377.20
2023-01-07T07:58:32.421Z,401.70
2023-01-07T08:03:34.303Z,503.80
2023-01-07T08:08:36.234Z,435.80
2023-01-07T08:13:38.013Z,358.50
2023-01-07T08:18:40.114Z,196.10
2023-01-07T08:23:42.034Z,166.70
2023-01-07T08:28:46.421Z,183.50
2023-01-07T08:33:48.455Z,232.40
2023-01-07T08:38:55.188Z,154.20
2023-01-07T08:43:56.972Z,140.10
2023-01-07T08:48:58.683Z,133.10
2023-01-07T08:54:00.402Z,118.20
2023-01-07T08:59:02.181Z,136.80
2023-01-07T09:04:04.124Z,136.40
2023-01-07T09:09:06.388Z,157.90
2023-01-07T09:14:08.112Z,179.30
2023-01-07T09:19:09.810Z,136.30
2023-01-07T09:24:11.576Z,162.60
2023-01-07T09:29:13.302Z,129.90
2023-01-07T09:34:15.130Z,112.80
2023-01-07T09:39:16.930Z,112.40
2023-01-07T09:44:46.114Z,108.80
2023-01-07T09:49:53.966Z,103.00
2023-01-07T09:55:10.581Z,102.50
2023-01-07T10:00:18.703Z,116.70
2023-01-07T10:05:34.302Z,75.00
2023-01-07T10:10:50.217Z,96.90
2023-01-07T10:15:58.369Z,86.40
2023-01-07T10:21:06.191Z,72.40
2023-01-07T10:26:19.352Z,70.30
2023-01-07T10:31:24.044Z,43.00
2023-01-07T10:36:28.988Z,48.30
2023-01-07T10:41:45.173Z,64.70
2023-01-07T10:47:00.041Z,47.60
2023-01-07T10:52:28.612Z,43.50
2023-01-07T10:57:31.909Z,28.00
2023-01-07T11:02:33.684Z,34.70
2023-01-07T11:07:48.336Z,32.70
2023-01-07T11:12:58.297Z,26.80
2023-01-07T11:23:38.330Z,19.00
2023-01-07T11:28:47.294Z,23.50
2023-01-07T11:34:02.304Z,16.80
2023-01-07T11:39:23.824Z,19.10
2023-01-07T11:44:26.125Z,13.40
2023-01-07T11:49:30.464Z,13.10
2023-01-07T11:54:32.723Z,13.20
2023-01-07T11:59:34.448Z,23.70
2023-01-07T12:04:37.163Z,20.70
2023-01-07T12:09:41.205Z,20.10
2023-01-07T12:14:47.680Z,22.90
2023-01-07T12:20:08.031Z,27.10
2023-01-07T12:25:24.875Z,24.70
2023-01-07T12:30:35.615Z,16.60
2023-01-07T12:35:42.922Z,17.80
2023-01-07T12:40:51.448Z,20.90
2023-01-07T12:46:00.593Z,16.00
2023-01-07T12:51:10.951Z,23.80
2023-01-07T12:56:22.964Z,14.90
2023-01-07T13:01:30.321Z,20.40
2023-01-07T13:06:45.043Z,24.50
2023-01-07T13:12:41.060Z,19.60
2023-01-07T13:22:46.997Z,16.40
2023-01-07T13:33:04.048Z,32.00
2023-01-07T13:38:33.865Z,34.20
2023-01-07T13:43:55.726Z,29.20
2023-01-07T13:48:57.633Z,36.60
2023-01-07T13:53:59.484Z,38.80
2023-01-07T13:59:01.915Z,40.80
2023-01-07T14:04:03.550Z,39.10
2023-01-07T14:09:05.315Z,37.80
2023-01-07T14:14:29.929Z,42.80
2023-01-07T14:19:47.006Z,45.90
2023-01-07T14:25:07.420Z,46.60
2023-01-07T14:30:28.410Z,53.40
2023-01-07T14:35:34.826Z,52.40
2023-01-07T14:40:37.400Z,50.70
2023-01-07T14:45:39.071Z,50.40
2023-01-07T14:50:46.075Z,50.70
2023-01-07T14:56:17.653Z,53.40
2023-01-07T15:01:37.023Z,66.70
2023-01-07T15:06:41.110Z,70.80
2023-01-07T15:12:04.270Z,66.30
2023-01-07T15:17:07.156Z,58.80
2023-01-07T15:22:28.787Z,84.90
2023-01-07T15:27:37.978Z,55.20
2023-01-07T15:32:57.784Z,65.00
2023-01-07T15:38:02.795Z,106.00
2023-01-07T15:43:05.797Z,149.20
2023-01-07T15:48:12.428Z,140.30
2023-01-07T15:53:14.099Z,123.60
2023-01-07T15:58:20.152Z,94.90
2023-01-07T16:03:22.404Z,95.00
2023-01-07T16:08:29.870Z,90.90
2023-01-07T16:13:32.812Z,93.90
2023-01-07T16:18:34.666Z,101.60
2023-01-07T16:23:37.836Z,90.90
2023-01-07T16:28:49.060Z,101.90
2023-01-07T16:33:54.263Z,116.90
2023-01-07T16:39:00.965Z,122.50
2023-01-07T16:44:03.416Z,141.60
2023-01-07T16:49:11.432Z,139.70
2023-01-07T16:54:25.788Z,133.70
2023-01-07T16:59:31.033Z,147.50
2023-01-07T17:04:33.534Z,134.80
2023-01-07T17:09:38.432Z,152.20
2023-01-07T17:14:45.662Z,168.30
2023-01-07T17:20:23.190Z,162.20
2023-01-07T17:25:28.351Z,148.00
2023-01-07T17:30:37.138Z,154.10
2023-01-07T17:35:44.413Z,158.20
2023-01-07T17:40:47.068Z,149.40
2023-01-07T17:45:48.814Z,143.80
2023-01-07T17:50:50.710Z,142.50
2023-01-07T17:55:52.655Z,147.50
2023-01-07T18:00:56.425Z,160.20
2023-01-07T18:05:58.470Z,165.60
2023-01-07T18:11:18.935Z,163.70
2023-01-07T18:16:20.699Z,179.80
2023-01-07T18:21:24.234Z,175.70
2023-01-07T18:26:27.213Z,168.50
2023-01-07T18:31:29.128Z,168.90
2023-01-07T18:36:30.871Z,143.90
2023-01-07T18:41:33.927Z,128.30
2023-01-07T18:46:35.575Z,121.80
2023-01-07T18:51:37.383Z,93.50
2023-01-07T18:56:39.185Z,132.60
2023-01-07T19:01:40.960Z,209.80
2023-01-07T19:06:42.914Z,226.00
2023-01-07T19:11:44.663Z,192.20
2023-01-07T19:16:46.459Z,221.90
2023-01-07T19:21:49.507Z,163.20
2023-01-07T19:26:52.020Z,171.50
2023-01-07T19:31:53.916Z,146.20
2023-01-07T19:36:55.631Z,186.40
2023-01-07T19:41:57.339Z,184.50
2023-01-07T19:46:59.111Z,162.60
2023-01-07T19:52:00.896Z,155.00
2023-01-07T19:57:02.606Z,146.70
2023-01-07T20:02:04.862Z,167.50
2023-01-07T20:07:06.661Z,172.80
2023-01-07T20:12:08.718Z,151.70
2023-01-07T20:17:11.299Z,171.60
2023-01-07T20:22:13.279Z,164.60
2023-01-07T20:27:15.023Z,197.00
2023-01-07T20:32:18.392Z,171.90
2023-01-07T20:37:21.849Z,177.20
2023-01-07T20:42:23.660Z,150.70
2023-01-07T20:47:25.690Z,196.20
2023-01-07T20:52:27.374Z,207.80
2023-01-07T20:57:30.776Z,224.70
2023-01-07T21:02:32.600Z,201.20
2023-01-07T21:07:34.720Z,217.60
2023-01-07T21:12:36.491Z,220.60
2023-01-07T21:17:39.392Z,211.70
2023-01-07T21:22:41.810Z,231.50
2023-01-07T21:27:43.580Z,214.80
2023-01-07T21:32:45.604Z,234.60
2023-01-07T21:37:49.889Z,221.50
2023-01-07T21:42:51.845Z,246.10
2023-01-07T21:47:53.623Z,228.10
2023-01-07T21:52:55.500Z,193.30
2023-01-07T21:57:57.210Z,255.20
2023-01-07T22:02:58.867Z,236.40
2023-01-07T22:08:00.570Z,261.10
2023-01-07T22:13:07.309Z,243.80
2023-01-07T22:18:09.170Z,256.30
2023-01-07T22:23:17.012Z,252.40
2023-01-07T22:28:21.685Z,245.10
2023-01-07T22:33:23.530Z,231.80
2023-01-07T22:38:27.168Z,279.40
2023-01-07T22:43:30.118Z,234.60
2023-01-07T22:48:36.519Z,252.80
2023-01-07T22:53:38.474Z,192.20
2023-01-07T22:58:40.264Z,216.10
2023-01-07T23:03:43.620Z,181.20
2023-01-07T23:08:45.501Z,240.20
2023-01-07T23:13:47.189Z,200.80
2023-01-07T23:18:48.902Z,152.90
2023-01-07T23:23:50.531Z,209.50
2023-01-07T23:28:52.321Z,198.80
2023-01-07T23:33:54.042Z,218.30
2023-01-07T23:38:56.007Z,219.50
2023-01-07T23:43:57.764Z,246.30
2023-01-07T23:48:59.549Z,246.40
2023-01-07T23:54:01.332Z,238.80
2023-01-07T23:59:03.348Z,219.30
